Barronett, Wisconsin
Current Conditions -  °F | °C
As of 3:35 PM on Monday 24 Nov 2014 (Local Time) from KUBE Reporting Station
Light Snow Light Snow  
Wind Chill:   Ceiling: 1500
Heat Index: 23°   Visibility: 3mi
Dew Point: 19°   Wind: 20mph
Humidity: 86%   Direction: 320°NW
Pressure: 29.47"   Gusts: 26mph
Location:  45.64°N, 91.99°W
Report Text: KUBE 242135Z AUTO 32017G23KT 3SM -SN BKN015 OVC029 M05/M07 A2947 RMK AO2
Loading
Personal Weather Stations






























Interactive Weather Map New forecast layout! Learn more

10-Day Weather Forecast

Advertisements
Track Severe Weather on mobile